sensor_id;sensor_type;location;lat;lon;timestamp;P1;durP1;ratioP1;P2;durP2;ratioP2
60726;SDS011;46577;49.004;12.120;2022-11-15T00:00:19;17.97;;;10.63;;
60726;SDS011;46577;49.004;12.120;2022-11-15T00:02:44;18.07;;;10.70;;
60726;SDS011;46577;49.004;12.120;2022-11-15T00:05:10;18.67;;;10.83;;
60726;SDS011;46577;49.004;12.120;2022-11-15T00:07:35;19.00;;;10.90;;
60726;SDS011;46577;49.004;12.120;2022-11-15T00:10:01;19.40;;;10.27;;
60726;SDS011;46577;49.004;12.120;2022-11-15T00:12:28;20.03;;;11.60;;
60726;SDS011;46577;49.004;12.120;2022-11-15T00:14:53;29.40;;;11.13;;
60726;SDS011;46577;49.004;12.120;2022-11-15T00:17:19;19.10;;;10.30;;
60726;SDS011;46577;49.004;12.120;2022-11-15T00:19:45;22.30;;;11.47;;
60726;SDS011;46577;49.004;12.120;2022-11-15T00:22:10;19.73;;;10.13;;
60726;SDS011;46577;49.004;12.120;2022-11-15T00:24:36;20.23;;;10.40;;
60726;SDS011;46577;49.004;12.120;2022-11-15T00:27:01;21.20;;;12.27;;
60726;SDS011;46577;49.004;12.120;2022-11-15T00:29:27;21.50;;;11.40;;
60726;SDS011;46577;49.004;12.120;2022-11-15T00:31:53;22.50;;;10.80;;
60726;SDS011;46577;49.004;12.120;2022-11-15T00:34:18;18.07;;;9.17;;
60726;SDS011;46577;49.004;12.120;2022-11-15T00:36:44;17.17;;;10.20;;
60726;SDS011;46577;49.004;12.120;2022-11-15T00:39:09;18.47;;;10.17;;
60726;SDS011;46577;49.004;12.120;2022-11-15T00:41:35;24.73;;;10.57;;
60726;SDS011;46577;49.004;12.120;2022-11-15T00:44:01;18.80;;;10.90;;
60726;SDS011;46577;49.004;12.120;2022-11-15T00:46:26;27.93;;;10.80;;
60726;SDS011;46577;49.004;12.120;2022-11-15T00:48:52;15.87;;;9.73;;
60726;SDS011;46577;49.004;12.120;2022-11-15T00:51:17;19.07;;;10.77;;
60726;SDS011;46577;49.004;12.120;2022-11-15T00:53:43;20.97;;;10.73;;
60726;SDS011;46577;49.004;12.120;2022-11-15T00:56:08;19.10;;;10.80;;
60726;SDS011;46577;49.004;12.120;2022-11-15T00:58:34;19.30;;;10.10;;
60726;SDS011;46577;49.004;12.120;2022-11-15T01:01:10;17.60;;;9.30;;
60726;SDS011;46577;49.004;12.120;2022-11-15T01:03:38;16.70;;;9.57;;
60726;SDS011;46577;49.004;12.120;2022-11-15T01:06:05;21.23;;;9.07;;
60726;SDS011;46577;49.004;12.120;2022-11-15T01:08:31;17.43;;;10.30;;
60726;SDS011;46577;49.004;12.120;2022-11-15T01:11:01;15.67;;;9.30;;
60726;SDS011;46577;49.004;12.120;2022-11-15T01:13:32;20.53;;;10.90;;
60726;SDS011;46577;49.004;12.120;2022-11-15T01:16:05;20.63;;;11.40;;
60726;SDS011;46577;49.004;12.120;2022-11-15T01:18:32;21.83;;;10.60;;
60726;SDS011;46577;49.004;12.120;2022-11-15T01:20:58;17.63;;;9.60;;
60726;SDS011;46577;49.004;12.120;2022-11-15T01:23:23;21.50;;;10.93;;
60726;SDS011;46577;49.004;12.120;2022-11-15T01:25:49;19.27;;;11.57;;
60726;SDS011;46577;49.004;12.120;2022-11-15T01:28:14;21.73;;;11.30;;
60726;SDS011;46577;49.004;12.120;2022-11-15T01:30:40;17.67;;;11.40;;
60726;SDS011;46577;49.004;12.120;2022-11-15T01:33:05;23.83;;;11.73;;
60726;SDS011;46577;49.004;12.120;2022-11-15T01:35:31;22.03;;;10.60;;
60726;SDS011;46577;49.004;12.120;2022-11-15T01:37:57;22.83;;;12.20;;
60726;SDS011;46577;49.004;12.120;2022-11-15T01:40:22;20.00;;;9.97;;
60726;SDS011;46577;49.004;12.120;2022-11-15T01:42:48;22.43;;;10.07;;
60726;SDS011;46577;49.004;12.120;2022-11-15T01:45:14;19.70;;;11.00;;
60726;SDS011;46577;49.004;12.120;2022-11-15T01:47:42;21.83;;;10.40;;
60726;SDS011;46577;49.004;12.120;2022-11-15T01:50:14;21.33;;;10.50;;
60726;SDS011;46577;49.004;12.120;2022-11-15T01:52:44;19.80;;;9.87;;
60726;SDS011;46577;49.004;12.120;2022-11-15T01:55:14;22.50;;;11.17;;
60726;SDS011;46577;49.004;12.120;2022-11-15T01:57:44;18.70;;;10.10;;
60726;SDS011;46577;49.004;12.120;2022-11-15T02:00:12;18.33;;;10.27;;
60726;SDS011;46577;49.004;12.120;2022-11-15T02:02:38;23.03;;;11.23;;
60726;SDS011;46577;49.004;12.120;2022-11-15T02:05:05;20.97;;;11.13;;
60726;SDS011;46577;49.004;12.120;2022-11-15T02:07:31;22.23;;;10.67;;
60726;SDS011;46577;49.004;12.120;2022-11-15T02:09:59;22.60;;;10.80;;
60726;SDS011;46577;49.004;12.120;2022-11-15T02:12:31;17.93;;;11.20;;
60726;SDS011;46577;49.004;12.120;2022-11-15T02:14:57;21.47;;;11.20;;
60726;SDS011;46577;49.004;12.120;2022-11-15T02:22:58;24.23;;;11.70;;
60726;SDS011;46577;49.004;12.120;2022-11-15T02:25:40;27.60;;;11.60;;
60726;SDS011;46577;49.004;12.120;2022-11-15T02:31:22;22.53;;;11.50;;
60726;SDS011;46577;49.004;12.120;2022-11-15T02:34:08;23.30;;;10.50;;
60726;SDS011;46577;49.004;12.120;2022-11-15T02:36:54;22.73;;;11.03;;
60726;SDS011;46577;49.004;12.120;2022-11-15T02:39:50;22.33;;;11.70;;
60726;SDS011;46577;49.004;12.120;2022-11-15T02:42:25;20.00;;;11.50;;
60726;SDS011;46577;49.004;12.120;2022-11-15T02:45:17;24.80;;;11.17;;
60726;SDS011;46577;49.004;12.120;2022-11-15T02:47:48;22.90;;;12.13;;
60726;SDS011;46577;49.004;12.120;2022-11-15T02:50:17;25.97;;;12.70;;
60726;SDS011;46577;49.004;12.120;2022-11-15T02:52:45;20.90;;;11.70;;
60726;SDS011;46577;49.004;12.120;2022-11-15T02:55:28;20.83;;;10.37;;
60726;SDS011;46577;49.004;12.120;2022-11-15T03:09:08;19.03;;;10.37;;
60726;SDS011;46577;49.004;12.120;2022-11-15T03:12:07;28.60;;;10.23;;
60726;SDS011;46577;49.004;12.120;2022-11-15T03:14:54;17.30;;;10.53;;
60726;SDS011;46577;49.004;12.120;2022-11-15T03:17:34;20.20;;;9.97;;
60726;SDS011;46577;49.004;12.120;2022-11-15T03:20:05;22.17;;;11.60;;
60726;SDS011;46577;49.004;12.120;2022-11-15T03:22:33;26.53;;;11.23;;
60726;SDS011;46577;49.004;12.120;2022-11-15T03:25:04;22.10;;;11.07;;
60726;SDS011;46577;49.004;12.120;2022-11-15T03:27:34;23.20;;;9.87;;
60726;SDS011;46577;49.004;12.120;2022-11-15T03:30:05;20.40;;;11.10;;
60726;SDS011;46577;49.004;12.120;2022-11-15T03:32:34;18.03;;;9.93;;
60726;SDS011;46577;49.004;12.120;2022-11-15T03:35:21;16.90;;;9.77;;
60726;SDS011;46577;49.004;12.120;2022-11-15T03:37:53;20.13;;;10.50;;
60726;SDS011;46577;49.004;12.120;2022-11-15T03:40:22;17.70;;;10.73;;
60726;SDS011;46577;49.004;12.120;2022-11-15T03:42:57;21.20;;;10.93;;
60726;SDS011;46577;49.004;12.120;2022-11-15T03:45:31;17.97;;;10.40;;
60726;SDS011;46577;49.004;12.120;2022-11-15T03:48:21;17.70;;;9.97;;
60726;SDS011;46577;49.004;12.120;2022-11-15T03:50:50;19.50;;;10.50;;
60726;SDS011;46577;49.004;12.120;2022-11-15T03:53:17;20.20;;;10.30;;
60726;SDS011;46577;49.004;12.120;2022-11-15T03:55:42;18.53;;;11.00;;
60726;SDS011;46577;49.004;12.120;2022-11-15T03:58:08;17.43;;;9.17;;
60726;SDS011;46577;49.004;12.120;2022-11-15T04:00:34;18.53;;;9.57;;
60726;SDS011;46577;49.004;12.120;2022-11-15T04:02:59;21.67;;;10.73;;
60726;SDS011;46577;49.004;12.120;2022-11-15T04:05:25;17.20;;;9.73;;
60726;SDS011;46577;49.004;12.120;2022-11-15T04:07:51;17.00;;;10.00;;
60726;SDS011;46577;49.004;12.120;2022-11-15T04:10:16;16.97;;;10.43;;
60726;SDS011;46577;49.004;12.120;2022-11-15T04:12:43;17.87;;;10.00;;
60726;SDS011;46577;49.004;12.120;2022-11-15T04:15:13;19.30;;;10.50;;
60726;SDS011;46577;49.004;12.120;2022-11-15T04:23:11;17.80;;;10.10;;
60726;SDS011;46577;49.004;12.120;2022-11-15T04:26:13;19.17;;;8.07;;
60726;SDS011;46577;49.004;12.120;2022-11-15T04:28:41;17.47;;;9.40;;
60726;SDS011;46577;49.004;12.120;2022-11-15T04:31:25;21.70;;;9.83;;
60726;SDS011;46577;49.004;12.120;2022-11-15T04:33:51;15.27;;;9.33;;
60726;SDS011;46577;49.004;12.120;2022-11-15T04:36:17;15.97;;;9.33;;
60726;SDS011;46577;49.004;12.120;2022-11-15T04:39:02;20.17;;;9.00;;
60726;SDS011;46577;49.004;12.120;2022-11-15T04:41:28;16.90;;;10.20;;
60726;SDS011;46577;49.004;12.120;2022-11-15T04:43:54;17.67;;;10.23;;
60726;SDS011;46577;49.004;12.120;2022-11-15T04:46:20;17.23;;;9.83;;
60726;SDS011;46577;49.004;12.120;2022-11-15T04:48:46;16.77;;;9.27;;
60726;SDS011;46577;49.004;12.120;2022-11-15T04:51:12;19.70;;;10.27;;
60726;SDS011;46577;49.004;12.120;2022-11-15T04:53:37;21.10;;;10.10;;
60726;SDS011;46577;49.004;12.120;2022-11-15T04:56:03;22.33;;;12.10;;
60726;SDS011;46577;49.004;12.120;2022-11-15T04:58:29;20.70;;;11.97;;
60726;SDS011;46577;49.004;12.120;2022-11-15T05:00:54;17.47;;;10.47;;
60726;SDS011;46577;49.004;12.120;2022-11-15T05:03:20;20.97;;;11.87;;
60726;SDS011;46577;49.004;12.120;2022-11-15T05:06:04;18.80;;;10.17;;
60726;SDS011;46577;49.004;12.120;2022-11-15T05:08:30;18.83;;;9.87;;
60726;SDS011;46577;49.004;12.120;2022-11-15T05:10:56;20.23;;;11.40;;
60726;SDS011;46577;49.004;12.120;2022-11-15T05:13:21;17.00;;;10.13;;
60726;SDS011;46577;49.004;12.120;2022-11-15T05:15:47;17.07;;;9.20;;
60726;SDS011;46577;49.004;12.120;2022-11-15T05:18:13;18.63;;;10.90;;
60726;SDS011;46577;49.004;12.120;2022-11-15T05:20:38;25.00;;;11.73;;
60726;SDS011;46577;49.004;12.120;2022-11-15T05:23:04;17.13;;;9.90;;
60726;SDS011;46577;49.004;12.120;2022-11-15T05:25:30;21.30;;;11.70;;
60726;SDS011;46577;49.004;12.120;2022-11-15T05:27:56;22.00;;;10.67;;
60726;SDS011;46577;49.004;12.120;2022-11-15T05:30:21;32.50;;;12.40;;
60726;SDS011;46577;49.004;12.120;2022-11-15T05:32:47;23.57;;;12.40;;
60726;SDS011;46577;49.004;12.120;2022-11-15T05:35:14;29.33;;;11.67;;
60726;SDS011;46577;49.004;12.120;2022-11-15T05:37:50;28.13;;;12.70;;
60726;SDS011;46577;49.004;12.120;2022-11-15T05:40:16;41.47;;;15.03;;
60726;SDS011;46577;49.004;12.120;2022-11-15T05:42:42;25.27;;;11.20;;
60726;SDS011;46577;49.004;12.120;2022-11-15T05:45:07;30.00;;;13.37;;
60726;SDS011;46577;49.004;12.120;2022-11-15T05:47:34;24.43;;;10.97;;
60726;SDS011;46577;49.004;12.120;2022-11-15T05:50:02;33.10;;;13.40;;
60726;SDS011;46577;49.004;12.120;2022-11-15T05:52:28;37.03;;;13.87;;
60726;SDS011;46577;49.004;12.120;2022-11-15T05:54:56;28.90;;;11.80;;
60726;SDS011;46577;49.004;12.120;2022-11-15T05:57:23;33.20;;;13.53;;
60726;SDS011;46577;49.004;12.120;2022-11-15T05:59:49;29.53;;;12.03;;
60726;SDS011;46577;49.004;12.120;2022-11-15T06:02:15;21.77;;;11.07;;
60726;SDS011;46577;49.004;12.120;2022-11-15T06:04:40;25.40;;;11.20;;
60726;SDS011;46577;49.004;12.120;2022-11-15T06:07:06;31.57;;;12.07;;
60726;SDS011;46577;49.004;12.120;2022-11-15T06:09:32;36.10;;;17.07;;
60726;SDS011;46577;49.004;12.120;2022-11-15T06:11:57;30.80;;;14.23;;
60726;SDS011;46577;49.004;12.120;2022-11-15T06:14:23;48.60;;;24.80;;
60726;SDS011;46577;49.004;12.120;2022-11-15T06:16:48;26.73;;;13.13;;
60726;SDS011;46577;49.004;12.120;2022-11-15T06:19:14;30.73;;;12.90;;
60726;SDS011;46577;49.004;12.120;2022-11-15T06:21:39;26.80;;;11.53;;
60726;SDS011;46577;49.004;12.120;2022-11-15T06:24:05;28.13;;;12.27;;
60726;SDS011;46577;49.004;12.120;2022-11-15T06:26:31;26.23;;;12.13;;
60726;SDS011;46577;49.004;12.120;2022-11-15T06:28:57;22.33;;;12.13;;
60726;SDS011;46577;49.004;12.120;2022-11-15T06:31:22;27.53;;;12.93;;
60726;SDS011;46577;49.004;12.120;2022-11-15T06:33:48;25.13;;;12.53;;
60726;SDS011;46577;49.004;12.120;2022-11-15T06:36:14;25.67;;;11.23;;
60726;SDS011;46577;49.004;12.120;2022-11-15T06:38:42;30.90;;;15.00;;
60726;SDS011;46577;49.004;12.120;2022-11-15T06:41:08;30.70;;;10.40;;
60726;SDS011;46577;49.004;12.120;2022-11-15T06:43:35;32.27;;;12.87;;
60726;SDS011;46577;49.004;12.120;2022-11-15T06:46:02;26.50;;;12.70;;
60726;SDS011;46577;49.004;12.120;2022-11-15T06:48:29;28.20;;;13.43;;
60726;SDS011;46577;49.004;12.120;2022-11-15T06:50:57;30.93;;;12.17;;
60726;SDS011;46577;49.004;12.120;2022-11-15T06:53:24;30.77;;;13.53;;
60726;SDS011;46577;49.004;12.120;2022-11-15T06:55:50;37.37;;;12.03;;
60726;SDS011;46577;49.004;12.120;2022-11-15T06:58:16;37.13;;;13.23;;
60726;SDS011;46577;49.004;12.120;2022-11-15T07:00:42;36.60;;;14.00;;
60726;SDS011;46577;49.004;12.120;2022-11-15T07:03:08;28.67;;;11.97;;
60726;SDS011;46577;49.004;12.120;2022-11-15T07:05:34;32.87;;;12.00;;
60726;SDS011;46577;49.004;12.120;2022-11-15T07:08:01;24.80;;;12.03;;
60726;SDS011;46577;49.004;12.120;2022-11-15T07:10:27;28.43;;;11.60;;
60726;SDS011;46577;49.004;12.120;2022-11-15T07:12:53;24.30;;;11.27;;
60726;SDS011;46577;49.004;12.120;2022-11-15T07:15:21;19.10;;;10.37;;
60726;SDS011;46577;49.004;12.120;2022-11-15T07:17:48;28.97;;;11.30;;
60726;SDS011;46577;49.004;12.120;2022-11-15T07:20:14;21.00;;;11.73;;
60726;SDS011;46577;49.004;12.120;2022-11-15T07:22:41;23.80;;;10.90;;
60726;SDS011;46577;49.004;12.120;2022-11-15T07:25:07;19.60;;;11.17;;
60726;SDS011;46577;49.004;12.120;2022-11-15T07:27:33;22.97;;;10.97;;
60726;SDS011;46577;49.004;12.120;2022-11-15T07:29:59;22.00;;;12.30;;
60726;SDS011;46577;49.004;12.120;2022-11-15T07:32:24;21.90;;;10.63;;
60726;SDS011;46577;49.004;12.120;2022-11-15T07:34:50;24.90;;;11.73;;
60726;SDS011;46577;49.004;12.120;2022-11-15T07:37:16;16.87;;;10.17;;
60726;SDS011;46577;49.004;12.120;2022-11-15T07:39:42;30.23;;;12.00;;
60726;SDS011;46577;49.004;12.120;2022-11-15T07:42:08;35.17;;;13.00;;
60726;SDS011;46577;49.004;12.120;2022-11-15T07:44:52;29.53;;;12.70;;
60726;SDS011;46577;49.004;12.120;2022-11-15T07:47:17;41.13;;;12.47;;
60726;SDS011;46577;49.004;12.120;2022-11-15T07:49:43;39.03;;;14.00;;
60726;SDS011;46577;49.004;12.120;2022-11-15T07:52:10;31.00;;;13.33;;
60726;SDS011;46577;49.004;12.120;2022-11-15T07:54:37;29.07;;;12.23;;
60726;SDS011;46577;49.004;12.120;2022-11-15T07:57:02;27.07;;;12.80;;
60726;SDS011;46577;49.004;12.120;2022-11-15T07:59:28;20.40;;;12.10;;
60726;SDS011;46577;49.004;12.120;2022-11-15T08:01:53;22.47;;;11.10;;
60726;SDS011;46577;49.004;12.120;2022-11-15T08:04:19;21.17;;;12.13;;
60726;SDS011;46577;49.004;12.120;2022-11-15T08:06:45;24.50;;;12.10;;
60726;SDS011;46577;49.004;12.120;2022-11-15T08:09:11;28.13;;;12.33;;
60726;SDS011;46577;49.004;12.120;2022-11-15T08:11:36;31.27;;;11.50;;
60726;SDS011;46577;49.004;12.120;2022-11-15T08:14:02;23.90;;;11.87;;
60726;SDS011;46577;49.004;12.120;2022-11-15T08:16:28;18.83;;;10.17;;
60726;SDS011;46577;49.004;12.120;2022-11-15T08:18:53;21.07;;;10.50;;
60726;SDS011;46577;49.004;12.120;2022-11-15T08:21:20;12.70;;;8.43;;
60726;SDS011;46577;49.004;12.120;2022-11-15T08:23:46;22.27;;;10.67;;
60726;SDS011;46577;49.004;12.120;2022-11-15T08:26:12;26.57;;;9.63;;
60726;SDS011;46577;49.004;12.120;2022-11-15T08:28:37;19.47;;;10.60;;
60726;SDS011;46577;49.004;12.120;2022-11-15T08:31:03;24.57;;;10.60;;
60726;SDS011;46577;49.004;12.120;2022-11-15T08:33:29;37.27;;;9.50;;
60726;SDS011;46577;49.004;12.120;2022-11-15T08:35:56;18.83;;;9.43;;
60726;SDS011;46577;49.004;12.120;2022-11-15T08:38:22;25.17;;;9.27;;
60726;SDS011;46577;49.004;12.120;2022-11-15T08:40:48;24.57;;;9.53;;
60726;SDS011;46577;49.004;12.120;2022-11-15T08:43:16;16.27;;;8.63;;
60726;SDS011;46577;49.004;12.120;2022-11-15T08:45:41;21.73;;;8.90;;
60726;SDS011;46577;49.004;12.120;2022-11-15T08:48:07;22.83;;;9.23;;
60726;SDS011;46577;49.004;12.120;2022-11-15T08:50:32;14.13;;;8.63;;
60726;SDS011;46577;49.004;12.120;2022-11-15T08:53:03;32.97;;;8.60;;
60726;SDS011;46577;49.004;12.120;2022-11-15T08:55:30;16.17;;;9.03;;
60726;SDS011;46577;49.004;12.120;2022-11-15T08:57:57;16.63;;;8.50;;
60726;SDS011;46577;49.004;12.120;2022-11-15T09:00:23;15.40;;;8.83;;
60726;SDS011;46577;49.004;12.120;2022-11-15T09:02:48;15.13;;;9.60;;
60726;SDS011;46577;49.004;12.120;2022-11-15T09:05:14;15.53;;;8.70;;
60726;SDS011;46577;49.004;12.120;2022-11-15T09:07:43;18.40;;;8.90;;
60726;SDS011;46577;49.004;12.120;2022-11-15T09:10:09;17.33;;;9.57;;
60726;SDS011;46577;49.004;12.120;2022-11-15T09:12:34;15.93;;;10.30;;
60726;SDS011;46577;49.004;12.120;2022-11-15T09:15:00;15.33;;;9.40;;
60726;SDS011;46577;49.004;12.120;2022-11-15T09:17:26;20.07;;;10.10;;
60726;SDS011;46577;49.004;12.120;2022-11-15T09:19:51;19.73;;;10.60;;
60726;SDS011;46577;49.004;12.120;2022-11-15T09:22:17;16.40;;;9.20;;
60726;SDS011;46577;49.004;12.120;2022-11-15T09:24:42;17.37;;;10.00;;
60726;SDS011;46577;49.004;12.120;2022-11-15T09:27:08;19.63;;;9.07;;
60726;SDS011;46577;49.004;12.120;2022-11-15T09:29:33;22.77;;;9.70;;
60726;SDS011;46577;49.004;12.120;2022-11-15T09:31:59;21.30;;;8.87;;
60726;SDS011;46577;49.004;12.120;2022-11-15T09:34:25;15.77;;;9.10;;
60726;SDS011;46577;49.004;12.120;2022-11-15T09:36:51;21.50;;;12.73;;
60726;SDS011;46577;49.004;12.120;2022-11-15T09:39:16;18.63;;;10.93;;
60726;SDS011;46577;49.004;12.120;2022-11-15T09:50:08;27.13;;;11.00;;
60726;SDS011;46577;49.004;12.120;2022-11-15T09:52:36;28.63;;;11.90;;
60726;SDS011;46577;49.004;12.120;2022-11-15T09:55:02;23.17;;;10.30;;
60726;SDS011;46577;49.004;12.120;2022-11-15T10:00:40;24.90;;;10.50;;
60726;SDS011;46577;49.004;12.120;2022-11-15T10:03:13;18.90;;;10.03;;
60726;SDS011;46577;49.004;12.120;2022-11-15T10:05:48;18.87;;;10.40;;
60726;SDS011;46577;49.004;12.120;2022-11-15T10:11:22;18.30;;;10.53;;
60726;SDS011;46577;49.004;12.120;2022-11-15T10:13:51;17.03;;;9.63;;
60726;SDS011;46577;49.004;12.120;2022-11-15T10:16:33;23.70;;;11.33;;
60726;SDS011;46577;49.004;12.120;2022-11-15T10:24:42;14.97;;;10.03;;
60726;SDS011;46577;49.004;12.120;2022-11-15T10:27:11;19.77;;;10.57;;
60726;SDS011;46577;49.004;12.120;2022-11-15T10:29:42;21.40;;;10.67;;
60726;SDS011;46577;49.004;12.120;2022-11-15T10:32:10;16.03;;;9.93;;
60726;SDS011;46577;49.004;12.120;2022-11-15T10:34:37;16.17;;;8.60;;
60726;SDS011;46577;49.004;12.120;2022-11-15T10:37:02;16.93;;;9.10;;
60726;SDS011;46577;49.004;12.120;2022-11-15T10:39:28;12.63;;;8.83;;
60726;SDS011;46577;49.004;12.120;2022-11-15T10:41:54;13.10;;;9.13;;
60726;SDS011;46577;49.004;12.120;2022-11-15T10:49:20;13.40;;;9.60;;
60726;SDS011;46577;49.004;12.120;2022-11-15T10:51:54;15.97;;;8.57;;
60726;SDS011;46577;49.004;12.120;2022-11-15T10:57:20;19.37;;;10.40;;
60726;SDS011;46577;49.004;12.120;2022-11-15T10:59:53;17.63;;;10.53;;
60726;SDS011;46577;49.004;12.120;2022-11-15T11:04:52;21.70;;;8.80;;
60726;SDS011;46577;49.004;12.120;2022-11-15T11:07:25;17.03;;;9.63;;
60726;SDS011;46577;49.004;12.120;2022-11-15T11:12:27;13.13;;;9.00;;
60726;SDS011;46577;49.004;12.120;2022-11-15T11:14:56;12.43;;;8.50;;
60726;SDS011;46577;49.004;12.120;2022-11-15T11:20:18;10.60;;;7.70;;
60726;SDS011;46577;49.004;12.120;2022-11-15T11:28:33;13.33;;;8.00;;
60726;SDS011;46577;49.004;12.120;2022-11-15T11:31:16;13.20;;;7.90;;
60726;SDS011;46577;49.004;12.120;2022-11-15T11:42:23;12.50;;;8.20;;
60726;SDS011;46577;49.004;12.120;2022-11-15T11:45:15;14.53;;;7.20;;
60726;SDS011;46577;49.004;12.120;2022-11-15T11:47:51;10.13;;;7.23;;
60726;SDS011;46577;49.004;12.120;2022-11-15T11:50:33;19.30;;;9.13;;
60726;SDS011;46577;49.004;12.120;2022-11-15T11:55:38;14.63;;;8.33;;
60726;SDS011;46577;49.004;12.120;2022-11-15T11:58:19;11.47;;;7.07;;
60726;SDS011;46577;49.004;12.120;2022-11-15T12:00:52;14.73;;;8.33;;
60726;SDS011;46577;49.004;12.120;2022-11-15T12:03:35;14.73;;;8.70;;
60726;SDS011;46577;49.004;12.120;2022-11-15T12:09:11;14.40;;;7.37;;
60726;SDS011;46577;49.004;12.120;2022-11-15T12:12:00;11.17;;;7.87;;
60726;SDS011;46577;49.004;12.120;2022-11-15T12:14:44;12.67;;;8.20;;
60726;SDS011;46577;49.004;12.120;2022-11-15T12:17:14;13.17;;;8.87;;
60726;SDS011;46577;49.004;12.120;2022-11-15T12:19:44;10.73;;;7.30;;
60726;SDS011;46577;49.004;12.120;2022-11-15T12:22:18;12.83;;;7.57;;
60726;SDS011;46577;49.004;12.120;2022-11-15T12:25:05;10.77;;;7.83;;
60726;SDS011;46577;49.004;12.120;2022-11-15T12:27:59;8.93;;;6.73;;
60726;SDS011;46577;49.004;12.120;2022-11-15T12:30:37;13.67;;;7.93;;
60726;SDS011;46577;49.004;12.120;2022-11-15T12:36:00;13.00;;;7.03;;
60726;SDS011;46577;49.004;12.120;2022-11-15T12:41:38;11.43;;;8.13;;
60726;SDS011;46577;49.004;12.120;2022-11-15T12:44:12;10.67;;;6.90;;
60726;SDS011;46577;49.004;12.120;2022-11-15T13:04:53;13.30;;;7.37;;
60726;SDS011;46577;49.004;12.120;2022-11-15T13:22:40;11.87;;;7.30;;
60726;SDS011;46577;49.004;12.120;2022-11-15T13:28:02;12.57;;;7.30;;
60726;SDS011;46577;49.004;12.120;2022-11-15T13:30:35;10.70;;;7.20;;
60726;SDS011;46577;49.004;12.120;2022-11-15T13:33:09;17.07;;;8.00;;
60726;SDS011;46577;49.004;12.120;2022-11-15T13:35:40;10.93;;;6.87;;
60726;SDS011;46577;49.004;12.120;2022-11-15T13:38:25;12.13;;;7.03;;
60726;SDS011;46577;49.004;12.120;2022-11-15T13:40:53;16.00;;;7.70;;
60726;SDS011;46577;49.004;12.120;2022-11-15T13:48:40;11.47;;;6.80;;
60726;SDS011;46577;49.004;12.120;2022-11-15T13:51:15;11.80;;;7.23;;
60726;SDS011;46577;49.004;12.120;2022-11-15T13:53:56;13.30;;;7.07;;
60726;SDS011;46577;49.004;12.120;2022-11-15T13:56:32;15.20;;;8.17;;
60726;SDS011;46577;49.004;12.120;2022-11-15T13:58:59;12.70;;;7.67;;
60726;SDS011;46577;49.004;12.120;2022-11-15T14:01:26;9.57;;;6.50;;
60726;SDS011;46577;49.004;12.120;2022-11-15T14:03:57;11.80;;;7.07;;
60726;SDS011;46577;49.004;12.120;2022-11-15T14:06:25;12.50;;;6.40;;
60726;SDS011;46577;49.004;12.120;2022-11-15T14:11:29;15.70;;;7.40;;
60726;SDS011;46577;49.004;12.120;2022-11-15T14:14:01;14.90;;;7.67;;
60726;SDS011;46577;49.004;12.120;2022-11-15T14:19:04;13.07;;;7.47;;
60726;SDS011;46577;49.004;12.120;2022-11-15T14:21:31;14.83;;;7.47;;
60726;SDS011;46577;49.004;12.120;2022-11-15T14:24:16;14.20;;;7.57;;
60726;SDS011;46577;49.004;12.120;2022-11-15T14:26:46;21.40;;;8.53;;
60726;SDS011;46577;49.004;12.120;2022-11-15T14:29:28;18.43;;;6.40;;
60726;SDS011;46577;49.004;12.120;2022-11-15T14:32:16;21.83;;;7.77;;
60726;SDS011;46577;49.004;12.120;2022-11-15T14:34:41;12.53;;;6.57;;
60726;SDS011;46577;49.004;12.120;2022-11-15T14:39:49;23.67;;;6.63;;
60726;SDS011;46577;49.004;12.120;2022-11-15T14:42:16;16.20;;;6.37;;
60726;SDS011;46577;49.004;12.120;2022-11-15T14:44:42;19.67;;;6.40;;
60726;SDS011;46577;49.004;12.120;2022-11-15T14:47:08;13.27;;;6.60;;
60726;SDS011;46577;49.004;12.120;2022-11-15T14:49:34;15.90;;;7.40;;
60726;SDS011;46577;49.004;12.120;2022-11-15T14:51:59;12.03;;;6.20;;
60726;SDS011;46577;49.004;12.120;2022-11-15T14:54:25;14.10;;;6.80;;
60726;SDS011;46577;49.004;12.120;2022-11-15T14:56:50;15.73;;;6.80;;
60726;SDS011;46577;49.004;12.120;2022-11-15T14:59:16;15.57;;;6.93;;
60726;SDS011;46577;49.004;12.120;2022-11-15T15:01:41;11.10;;;6.90;;
60726;SDS011;46577;49.004;12.120;2022-11-15T15:04:08;11.73;;;6.93;;
60726;SDS011;46577;49.004;12.120;2022-11-15T15:06:35;15.83;;;6.83;;
60726;SDS011;46577;49.004;12.120;2022-11-15T15:09:00;18.67;;;7.60;;
60726;SDS011;46577;49.004;12.120;2022-11-15T15:11:27;12.70;;;7.30;;
60726;SDS011;46577;49.004;12.120;2022-11-15T15:13:55;10.83;;;6.80;;
60726;SDS011;46577;49.004;12.120;2022-11-15T15:16:23;19.30;;;7.13;;
60726;SDS011;46577;49.004;12.120;2022-11-15T15:18:49;13.70;;;7.57;;
60726;SDS011;46577;49.004;12.120;2022-11-15T15:21:28;10.93;;;6.17;;
60726;SDS011;46577;49.004;12.120;2022-11-15T15:23:55;12.97;;;6.90;;
60726;SDS011;46577;49.004;12.120;2022-11-15T15:26:21;10.20;;;6.00;;
60726;SDS011;46577;49.004;12.120;2022-11-15T15:28:50;16.23;;;7.80;;
60726;SDS011;46577;49.004;12.120;2022-11-15T15:31:16;13.33;;;7.30;;
60726;SDS011;46577;49.004;12.120;2022-11-15T15:33:43;11.87;;;6.67;;
60726;SDS011;46577;49.004;12.120;2022-11-15T15:36:10;19.83;;;8.40;;
60726;SDS011;46577;49.004;12.120;2022-11-15T15:38:37;18.67;;;7.43;;
60726;SDS011;46577;49.004;12.120;2022-11-15T15:41:06;12.27;;;7.33;;
60726;SDS011;46577;49.004;12.120;2022-11-15T15:43:39;18.07;;;8.40;;
60726;SDS011;46577;49.004;12.120;2022-11-15T15:46:09;20.57;;;8.87;;
60726;SDS011;46577;49.004;12.120;2022-11-15T15:48:42;25.87;;;11.47;;
60726;SDS011;46577;49.004;12.120;2022-11-15T15:51:07;18.57;;;9.70;;
60726;SDS011;46577;49.004;12.120;2022-11-15T15:53:33;19.13;;;9.67;;
60726;SDS011;46577;49.004;12.120;2022-11-15T15:55:59;26.13;;;12.43;;
60726;SDS011;46577;49.004;12.120;2022-11-15T15:58:25;20.50;;;11.13;;
60726;SDS011;46577;49.004;12.120;2022-11-15T16:00:51;46.57;;;16.87;;
60726;SDS011;46577;49.004;12.120;2022-11-15T16:03:16;27.70;;;12.90;;
60726;SDS011;46577;49.004;12.120;2022-11-15T16:05:42;18.80;;;8.90;;
60726;SDS011;46577;49.004;12.120;2022-11-15T16:08:18;20.90;;;12.20;;
60726;SDS011;46577;49.004;12.120;2022-11-15T16:10:45;29.83;;;13.83;;
60726;SDS011;46577;49.004;12.120;2022-11-15T16:13:10;29.53;;;13.53;;
60726;SDS011;46577;49.004;12.120;2022-11-15T16:15:36;20.20;;;11.10;;
60726;SDS011;46577;49.004;12.120;2022-11-15T16:18:03;28.13;;;13.30;;
60726;SDS011;46577;49.004;12.120;2022-11-15T16:23:01;20.13;;;11.07;;
60726;SDS011;46577;49.004;12.120;2022-11-15T16:25:28;24.87;;;11.40;;
60726;SDS011;46577;49.004;12.120;2022-11-15T16:27:57;23.60;;;12.67;;
60726;SDS011;46577;49.004;12.120;2022-11-15T16:30:23;32.40;;;16.30;;
60726;SDS011;46577;49.004;12.120;2022-11-15T16:32:49;110.67;;;55.13;;
60726;SDS011;46577;49.004;12.120;2022-11-15T16:35:15;93.40;;;41.37;;
60726;SDS011;46577;49.004;12.120;2022-11-15T16:37:41;45.50;;;21.10;;
60726;SDS011;46577;49.004;12.120;2022-11-15T16:40:31;37.50;;;16.27;;
60726;SDS011;46577;49.004;12.120;2022-11-15T16:42:57;30.77;;;15.30;;